createdAt,value
2022-08-08T00:00:51.102Z,14.76
2022-08-08T00:02:33.301Z,14.49
2022-08-08T00:06:00.797Z,14.36
2022-08-08T00:08:37.299Z,14.07
2022-08-08T00:11:46.475Z,13.89
2022-08-08T00:15:09.977Z,13.69
2022-08-08T00:18:04.727Z,13.53
2022-08-08T00:20:56.646Z,13.37
2022-08-08T00:23:47.588Z,13.35
2022-08-08T00:26:40.319Z,13.39
2022-08-08T00:29:45.416Z,13.36
2022-08-08T00:32:38.447Z,13.35
2022-08-08T00:35:38.904Z,13.24
2022-08-08T00:38:44.434Z,13.16
2022-08-08T00:42:30.303Z,13.13
2022-08-08T00:45:41.778Z,12.98
2022-08-08T00:48:59.461Z,12.94
2022-08-08T00:52:20.093Z,12.84
2022-08-08T00:55:36.281Z,12.68
2022-08-08T00:59:11.422Z,12.68
2022-08-08T01:03:58.547Z,12.54
2022-08-08T01:06:16.910Z,12.32
2022-08-08T01:09:36.263Z,12.33
2022-08-08T01:13:16.715Z,12.32
2022-08-08T01:16:28.400Z,12.31
2022-08-08T01:19:41.875Z,12.29
2022-08-08T01:23:55.689Z,12.19
2022-08-08T01:26:27.308Z,12.08
2022-08-08T01:29:35.832Z,11.87
2022-08-08T01:33:16.338Z,11.84
2022-08-08T01:36:25.828Z,11.76
2022-08-08T01:39:41.982Z,11.60
2022-08-08T01:42:53.869Z,11.65
2022-08-08T01:45:41.063Z,11.56
2022-08-08T01:48:58.798Z,11.68
2022-08-08T01:52:43.591Z,11.64
2022-08-08T01:56:28.908Z,11.74
2022-08-08T01:58:51.288Z,11.88
2022-08-08T02:02:09.866Z,11.82
2022-08-08T02:05:23.266Z,11.95
2022-08-08T02:08:47.154Z,11.97
2022-08-08T02:11:52.875Z,11.89
2022-08-08T02:15:05.149Z,11.87
2022-08-08T02:18:32.827Z,11.80
2022-08-08T02:21:44.721Z,11.76
2022-08-08T02:24:45.511Z,11.72
2022-08-08T02:28:01.859Z,11.66
2022-08-08T02:31:07.149Z,11.78
2022-08-08T02:34:35.279Z,11.87
2022-08-08T02:37:53.176Z,11.80
2022-08-08T02:41:58.169Z,11.81
2022-08-08T02:45:00.067Z,11.89
2022-08-08T02:48:09.121Z,11.85
2022-08-08T02:51:13.067Z,11.76
2022-08-08T02:54:50.449Z,11.70
2022-08-08T02:57:44.543Z,11.76
2022-08-08T03:00:51.388Z,11.80
2022-08-08T03:05:03.590Z,11.72
2022-08-08T03:08:13.710Z,11.77
2022-08-08T03:12:01.479Z,11.69
2022-08-08T03:15:56.874Z,11.69
2022-08-08T03:18:31.126Z,11.70
2022-08-08T03:21:18.180Z,11.62
2022-08-08T03:24:04.212Z,11.55
2022-08-08T03:27:10.128Z,11.60
2022-08-08T03:30:07.593Z,11.62
2022-08-08T03:33:56.154Z,11.62
2022-08-08T03:36:27.886Z,11.65
2022-08-08T03:39:16.810Z,11.62
2022-08-08T03:42:26.746Z,11.57
2022-08-08T03:46:04.800Z,11.64
2022-08-08T03:49:09.720Z,11.57
2022-08-08T03:51:50.450Z,11.59
2022-08-08T03:55:02.019Z,11.52
2022-08-08T03:58:35.645Z,11.53
2022-08-08T04:01:20.779Z,11.46
2022-08-08T04:04:07.478Z,11.39
2022-08-08T04:07:01.442Z,11.39
2022-08-08T04:10:02.797Z,11.39
2022-08-08T04:12:55.280Z,11.41
2022-08-08T04:15:55.054Z,11.42
2022-08-08T04:18:48.946Z,11.32
2022-08-08T04:21:41.456Z,11.28
2022-08-08T04:24:32.158Z,11.22
2022-08-08T04:28:02.862Z,11.25
2022-08-08T04:30:28.272Z,11.11
2022-08-08T04:33:22.860Z,11.00
2022-08-08T04:36:10.610Z,10.94
2022-08-08T04:39:47.697Z,10.92
2022-08-08T04:42:02.452Z,10.76
2022-08-08T04:44:48.091Z,10.77
2022-08-08T04:47:36.722Z,10.74
2022-08-08T04:50:38.556Z,10.68
2022-08-08T04:53:52.641Z,10.71
2022-08-08T04:56:35.404Z,10.74
2022-08-08T04:59:27.005Z,10.76
2022-08-08T05:02:16.228Z,10.86
2022-08-08T05:05:06.421Z,10.81
2022-08-08T05:08:02.767Z,10.82
2022-08-08T05:10:49.071Z,10.82
2022-08-08T05:13:55.260Z,10.82
2022-08-08T05:16:55.000Z,10.78
2022-08-08T05:20:11.903Z,10.84
2022-08-08T05:22:57.207Z,10.82
2022-08-08T05:25:48.760Z,10.81
2022-08-08T05:28:56.899Z,10.76
2022-08-08T05:32:03.392Z,10.77
2022-08-08T05:34:49.887Z,10.84
2022-08-08T05:37:53.836Z,10.93
2022-08-08T05:41:04.672Z,10.98
2022-08-08T05:44:04.947Z,11.24
2022-08-08T05:46:54.720Z,11.33
2022-08-08T05:49:54.148Z,11.29
2022-08-08T05:52:44.232Z,11.29
2022-08-08T05:56:07.794Z,11.28
2022-08-08T05:58:54.192Z,11.28
2022-08-08T06:01:58.097Z,11.26
2022-08-08T06:04:56.332Z,11.29
2022-08-08T06:07:47.606Z,11.31
2022-08-08T06:10:35.082Z,11.30
2022-08-08T06:13:35.822Z,11.34
2022-08-08T06:16:30.356Z,11.39
2022-08-08T06:19:41.545Z,11.45
2022-08-08T06:22:35.360Z,11.49
2022-08-08T06:25:33.186Z,11.53
2022-08-08T06:28:35.269Z,11.58
2022-08-08T06:31:22.847Z,11.63
2022-08-08T06:34:36.959Z,11.66
2022-08-08T06:37:28.281Z,11.74
2022-08-08T06:40:30.018Z,11.77
2022-08-08T06:43:30.523Z,11.86
2022-08-08T06:46:31.070Z,11.96
2022-08-08T06:49:19.228Z,11.98
2022-08-08T06:52:27.650Z,12.08
2022-08-08T06:55:16.570Z,12.22
2022-08-08T06:58:04.160Z,12.26
2022-08-08T07:00:52.114Z,12.32
2022-08-08T07:04:36.882Z,12.41
2022-08-08T07:07:12.262Z,12.50
2022-08-08T07:10:08.260Z,12.58
2022-08-08T07:13:06.102Z,12.67
2022-08-08T07:16:12.004Z,12.83
2022-08-08T07:19:06.373Z,12.92
2022-08-08T07:22:05.347Z,13.00
2022-08-08T07:25:06.792Z,13.06
2022-08-08T07:28:07.702Z,13.10
2022-08-08T07:30:58.773Z,13.16
2022-08-08T07:33:53.811Z,13.22
2022-08-08T07:36:50.677Z,13.34
2022-08-08T07:39:45.460Z,13.43
2022-08-08T07:42:45.071Z,13.53
2022-08-08T07:45:34.735Z,13.69
2022-08-08T07:48:36.581Z,13.79
2022-08-08T07:51:45.483Z,13.86
2022-08-08T07:54:58.875Z,14.03
2022-08-08T07:58:01.987Z,14.15
2022-08-08T08:00:51.945Z,14.23
2022-08-08T08:03:51.302Z,14.37
2022-08-08T08:06:43.883Z,14.56
2022-08-08T08:09:39.322Z,14.64
2022-08-08T08:12:35.608Z,14.86
2022-08-08T08:15:31.792Z,14.95
2022-08-08T08:18:32.224Z,15.00
2022-08-08T08:21:20.875Z,14.99
2022-08-08T08:24:32.261Z,15.10
2022-08-08T08:27:22.030Z,15.19
2022-08-08T08:30:12.974Z,15.25
2022-08-08T08:32:59.136Z,15.48
2022-08-08T08:36:20.242Z,15.66
2022-08-08T08:38:54.384Z,15.75
2022-08-08T08:41:51.632Z,15.75
2022-08-08T08:44:38.036Z,15.78
2022-08-08T08:47:26.476Z,15.82
2022-08-08T08:50:31.859Z,15.89
2022-08-08T08:53:54.695Z,15.99
2022-08-08T08:56:32.419Z,16.03
2022-08-08T09:00:01.461Z,16.09
2022-08-08T09:02:41.699Z,16.15
2022-08-08T09:05:53.860Z,16.20
2022-08-08T09:08:44.481Z,16.34
2022-08-08T09:11:47.267Z,16.47
2022-08-08T09:14:47.577Z,16.53
2022-08-08T09:17:41.981Z,16.55
2022-08-08T09:21:56.279Z,16.60
2022-08-08T09:23:47.890Z,16.68
2022-08-08T09:26:51.593Z,16.72
2022-08-08T09:29:56.964Z,16.82
2022-08-08T09:33:12.947Z,16.96
2022-08-08T09:36:03.585Z,17.22
2022-08-08T09:38:56.185Z,17.28
2022-08-08T09:41:54.802Z,17.39
2022-08-08T09:45:15.539Z,17.54
2022-08-08T09:48:17.992Z,17.63
2022-08-08T09:51:09.441Z,17.74
2022-08-08T09:54:09.411Z,17.90
2022-08-08T09:57:03.177Z,17.93
2022-08-08T10:00:28.820Z,17.88
2022-08-08T10:03:02.820Z,17.90
2022-08-08T10:05:49.672Z,17.97
2022-08-08T10:08:44.302Z,18.01
2022-08-08T10:12:28.182Z,18.08
2022-08-08T10:14:39.611Z,18.16
2022-08-08T10:17:56.380Z,18.17
2022-08-08T10:20:57.409Z,18.22
2022-08-08T10:23:58.798Z,18.40
2022-08-08T10:26:59.493Z,18.52
2022-08-08T10:30:03.954Z,18.56
2022-08-08T10:33:00.935Z,18.61
2022-08-08T10:36:07.420Z,18.67
2022-08-08T10:39:07.081Z,18.68
2022-08-08T10:42:15.382Z,18.74
2022-08-08T10:45:08.850Z,18.89
2022-08-08T10:47:58.918Z,19.04
2022-08-08T10:50:45.220Z,19.07
2022-08-08T10:53:56.397Z,19.07
2022-08-08T10:56:43.753Z,19.05
2022-08-08T10:59:31.241Z,19.04
2022-08-08T11:02:33.551Z,19.12
2022-08-08T11:05:19.377Z,19.21
2022-08-08T11:08:37.219Z,19.35
2022-08-08T11:11:32.650Z,19.50
2022-08-08T11:14:26.315Z,19.63
2022-08-08T11:17:14.936Z,19.82
2022-08-08T11:20:11.020Z,19.88
2022-08-08T11:23:01.245Z,19.97
2022-08-08T11:25:56.048Z,19.98
2022-08-08T11:28:44.986Z,20.00
2022-08-08T11:31:43.597Z,20.03
2022-08-08T11:34:52.445Z,20.27
2022-08-08T11:38:39.212Z,20.42
2022-08-08T11:40:52.491Z,20.58
2022-08-08T11:43:42.161Z,20.76
2022-08-08T11:46:31.358Z,21.08
2022-08-08T11:49:17.629Z,21.30
2022-08-08T11:52:03.683Z,21.61
2022-08-08T11:54:50.125Z,21.85
2022-08-08T11:57:40.052Z,22.01
2022-08-08T12:00:28.879Z,22.17
2022-08-08T12:03:21.327Z,22.63
2022-08-08T12:06:15.147Z,22.68
2022-08-08T12:09:17.036Z,22.58
2022-08-08T12:12:04.839Z,22.78
2022-08-08T12:15:01.106Z,23.21
2022-08-08T12:17:50.863Z,23.36
2022-08-08T12:20:39.276Z,23.20
2022-08-08T12:23:43.503Z,23.46
2022-08-08T12:26:44.661Z,23.70
2022-08-08T12:29:41.066Z,23.97
2022-08-08T12:32:42.206Z,23.97
2022-08-08T12:35:39.668Z,24.17
2022-08-08T12:38:31.234Z,24.40
2022-08-08T12:41:35.414Z,24.56
2022-08-08T12:44:30.235Z,24.42
2022-08-08T12:47:57.896Z,24.47
2022-08-08T12:50:46.680Z,24.57
2022-08-08T12:53:37.852Z,24.59
2022-08-08T12:56:35.985Z,24.64
2022-08-08T12:59:36.292Z,24.77
2022-08-08T13:02:35.840Z,25.04
2022-08-08T13:05:26.583Z,25.07
2022-08-08T13:08:53.095Z,25.16
2022-08-08T13:12:27.354Z,25.17
2022-08-08T13:14:53.303Z,25.31
2022-08-08T13:18:08.747Z,25.26
2022-08-08T13:20:48.854Z,25.20
2022-08-08T13:23:41.251Z,25.37
2022-08-08T13:26:32.362Z,25.43
2022-08-08T13:29:18.210Z,25.40
2022-08-08T13:32:07.373Z,25.52
2022-08-08T13:34:58.950Z,25.66
2022-08-08T13:38:04.696Z,25.78
2022-08-08T13:40:51.591Z,25.73
2022-08-08T13:43:37.707Z,26.06
2022-08-08T13:46:26.686Z,26.09
2022-08-08T13:50:35.972Z,25.80
2022-08-08T13:52:37.598Z,25.41
2022-08-08T13:55:29.352Z,25.44
2022-08-08T13:58:22.239Z,25.64
2022-08-08T14:01:41.995Z,25.71
2022-08-08T14:04:35.554Z,26.00
2022-08-08T14:07:23.261Z,25.92
2022-08-08T14:10:17.138Z,25.27
2022-08-08T14:13:06.294Z,25.35
2022-08-08T14:16:16.048Z,25.59
2022-08-08T14:19:02.977Z,25.83
2022-08-08T14:21:56.447Z,26.06
2022-08-08T14:24:48.760Z,26.16
2022-08-08T14:27:37.690Z,26.23
2022-08-08T14:30:34.081Z,26.38
2022-08-08T14:33:36.571Z,26.54
2022-08-08T14:36:36.852Z,26.55
2022-08-08T14:39:25.061Z,26.58
2022-08-08T14:42:30.912Z,26.60
2022-08-08T14:45:18.345Z,26.54
2022-08-08T14:48:16.588Z,26.71
2022-08-08T14:51:06.761Z,26.78
2022-08-08T14:53:55.127Z,26.73
2022-08-08T14:56:42.680Z,26.83
2022-08-08T14:59:44.589Z,26.79
2022-08-08T15:02:35.560Z,26.67
2022-08-08T15:05:33.999Z,26.65
2022-08-08T15:08:35.432Z,26.55
2022-08-08T15:11:24.230Z,26.60
2022-08-08T15:14:13.697Z,26.54
2022-08-08T15:17:00.127Z,26.40
2022-08-08T15:19:48.506Z,26.34
2022-08-08T15:22:35.648Z,26.37
2022-08-08T15:25:29.359Z,26.23
2022-08-08T15:28:33.257Z,26.33
2022-08-08T15:31:56.250Z,26.51
2022-08-08T15:34:31.946Z,26.48
2022-08-08T15:37:19.147Z,26.29
2022-08-08T15:40:11.246Z,26.43
2022-08-08T15:43:00.568Z,26.41
2022-08-08T15:45:49.476Z,26.64
2022-08-08T15:48:36.403Z,26.63
2022-08-08T15:51:22.916Z,26.68
2022-08-08T15:54:18.875Z,26.97
2022-08-08T15:57:20.678Z,27.08
2022-08-08T16:00:26.844Z,27.08
2022-08-08T16:03:12.999Z,26.88
2022-08-08T16:06:01.889Z,26.98
2022-08-08T16:09:02.379Z,26.59
2022-08-08T16:13:14.106Z,26.52
2022-08-08T16:14:59.430Z,26.63
2022-08-08T16:18:06.725Z,26.60
2022-08-08T16:20:51.335Z,26.77
2022-08-08T16:23:36.783Z,26.96
2022-08-08T16:26:34.633Z,27.18
2022-08-08T16:29:37.012Z,27.27
2022-08-08T16:32:27.491Z,27.10
2022-08-08T16:35:13.626Z,26.64
2022-08-08T16:38:04.410Z,26.66
2022-08-08T16:40:49.958Z,26.63
2022-08-08T16:43:48.937Z,26.81
2022-08-08T16:46:46.326Z,26.72
2022-08-08T16:49:38.309Z,26.55
2022-08-08T16:55:06.672Z,26.49
2022-08-08T16:55:53.141Z,26.59
2022-08-08T16:58:37.332Z,26.56
2022-08-08T17:01:25.275Z,26.44
2022-08-08T17:04:16.489Z,26.52
2022-08-08T17:07:02.869Z,26.39
2022-08-08T17:09:52.237Z,26.39
2022-08-08T17:12:38.587Z,26.35
2022-08-08T17:15:27.135Z,26.26
2022-08-08T17:18:32.758Z,26.08
2022-08-08T17:21:18.605Z,25.92
2022-08-08T17:24:22.036Z,25.79
2022-08-08T17:27:12.953Z,25.76
2022-08-08T17:30:08.485Z,25.69
2022-08-08T17:34:37.412Z,25.47
2022-08-08T17:36:12.484Z,25.28
2022-08-08T17:39:45.984Z,25.24
2022-08-08T17:42:11.809Z,25.29
2022-08-08T17:44:58.623Z,25.31
2022-08-08T17:47:44.243Z,25.33
2022-08-08T17:50:36.621Z,25.25
2022-08-08T17:53:31.263Z,25.05
2022-08-08T17:56:28.079Z,24.89
2022-08-08T17:59:17.266Z,24.80
2022-08-08T18:02:04.141Z,24.69
2022-08-08T18:04:50.728Z,24.73
2022-08-08T18:08:03.413Z,24.76
2022-08-08T18:10:42.169Z,24.75
2022-08-08T18:13:28.127Z,24.77
2022-08-08T18:16:23.677Z,24.77
2022-08-08T18:19:17.957Z,24.77
2022-08-08T18:22:05.145Z,24.81
2022-08-08T18:24:51.247Z,24.79
2022-08-08T18:27:38.312Z,24.72
2022-08-08T18:30:29.161Z,24.66
2022-08-08T18:33:36.751Z,24.24
2022-08-08T18:36:23.226Z,24.16
2022-08-08T18:39:10.232Z,24.12
2022-08-08T18:42:03.670Z,23.85
2022-08-08T18:44:55.640Z,23.41
2022-08-08T18:47:42.846Z,22.83
2022-08-08T18:50:29.409Z,22.45
2022-08-08T18:53:16.821Z,21.94
2022-08-08T18:56:05.841Z,21.45
2022-08-08T18:58:53.838Z,21.13
2022-08-08T19:02:26.886Z,20.84
2022-08-08T19:04:45.080Z,20.51
2022-08-08T19:07:37.301Z,20.12
2022-08-08T19:10:23.597Z,19.90
2022-08-08T19:13:21.598Z,19.73
2022-08-08T19:16:19.154Z,19.56
2022-08-08T19:19:09.806Z,19.33
2022-08-08T19:21:59.054Z,19.08
2022-08-08T19:26:02.242Z,18.84
2022-08-08T19:27:57.450Z,18.61
2022-08-08T19:30:51.399Z,18.47
2022-08-08T19:34:05.133Z,18.31
2022-08-08T19:36:58.759Z,18.16
2022-08-08T19:39:46.296Z,18.06
2022-08-08T19:42:36.736Z,17.92
2022-08-08T19:45:59.880Z,17.76
2022-08-08T19:48:30.843Z,17.58
2022-08-08T19:51:16.841Z,17.44
2022-08-08T19:54:19.494Z,17.30
2022-08-08T19:57:07.763Z,17.17
2022-08-08T19:59:53.387Z,17.06
2022-08-08T20:02:39.572Z,16.92
2022-08-08T20:06:12.730Z,16.80
2022-08-08T20:08:32.357Z,16.63
2022-08-08T20:11:21.802Z,16.54
2022-08-08T20:14:31.855Z,16.40
2022-08-08T20:17:13.657Z,16.27
2022-08-08T20:20:16.084Z,16.10
2022-08-08T20:23:12.321Z,15.95
2022-08-08T20:26:01.558Z,15.87
2022-08-08T20:28:47.937Z,15.76
2022-08-08T20:32:07.134Z,15.67
2022-08-08T20:34:47.508Z,15.54
2022-08-08T20:37:46.951Z,15.39
2022-08-08T20:40:41.148Z,15.26
2022-08-08T20:43:43.553Z,15.15
2022-08-08T20:46:33.301Z,15.00
2022-08-08T20:49:19.301Z,14.98
2022-08-08T20:52:07.846Z,14.92
2022-08-08T20:54:54.290Z,14.80
2022-08-08T20:57:43.744Z,14.69
2022-08-08T21:00:35.970Z,14.62
2022-08-08T21:03:29.710Z,14.51
2022-08-08T21:06:15.893Z,14.44
2022-08-08T21:09:01.655Z,14.38
2022-08-08T21:11:51.394Z,14.32
2022-08-08T21:14:37.828Z,14.20
2022-08-08T21:17:25.146Z,14.14
2022-08-08T21:20:11.270Z,14.13
2022-08-08T21:22:57.156Z,14.02
2022-08-08T21:25:43.574Z,13.98
2022-08-08T21:28:35.480Z,13.90
2022-08-08T21:31:23.494Z,13.82
2022-08-08T21:34:09.301Z,13.72
2022-08-08T21:37:11.230Z,13.66
2022-08-08T21:40:05.089Z,13.65
2022-08-08T21:42:51.126Z,13.58
2022-08-08T21:48:00.745Z,13.54
2022-08-08T21:48:49.204Z,13.48
2022-08-08T21:54:17.078Z,13.49
2022-08-08T21:54:58.113Z,13.64
2022-08-08T21:58:05.294Z,13.61
2022-08-08T22:00:54.908Z,13.40
2022-08-08T22:03:40.534Z,13.32
2022-08-08T22:06:31.101Z,13.33
2022-08-08T22:09:17.374Z,13.34
2022-08-08T22:12:09.394Z,13.52
2022-08-08T22:14:55.669Z,13.42
2022-08-08T22:17:45.598Z,13.20
2022-08-08T22:20:31.765Z,13.14
2022-08-08T22:23:17.611Z,12.99
2022-08-08T22:26:27.167Z,12.98
2022-08-08T22:29:57.145Z,12.93
2022-08-08T22:32:14.840Z,12.86
2022-08-08T22:35:00.319Z,12.86
2022-08-08T22:37:54.179Z,12.82
2022-08-08T22:40:40.983Z,12.61
2022-08-08T22:43:26.691Z,12.62
2022-08-08T22:46:17.448Z,12.94
2022-08-08T22:49:02.908Z,13.06
2022-08-08T22:51:51.309Z,13.10
2022-08-08T22:54:53.949Z,13.23
2022-08-08T22:57:49.370Z,13.15
2022-08-08T23:00:35.459Z,12.86
2022-08-08T23:03:21.179Z,12.65
2022-08-08T23:06:07.042Z,12.63
2022-08-08T23:08:58.606Z,12.65
2022-08-08T23:12:29.130Z,12.56
2022-08-08T23:14:56.166Z,12.69
2022-08-08T23:17:54.154Z,12.51
2022-08-08T23:20:44.541Z,12.37
2022-08-08T23:23:48.742Z,12.25
2022-08-08T23:26:41.425Z,12.29
2022-08-08T23:29:39.783Z,12.27
2022-08-08T23:32:27.787Z,12.24
2022-08-08T23:35:17.187Z,12.32
2022-08-08T23:38:03.986Z,12.25
2022-08-08T23:40:53.192Z,12.19
2022-08-08T23:43:45.618Z,12.11
2022-08-08T23:48:59.924Z,12.02
2022-08-08T23:49:38.747Z,11.93
2022-08-08T23:52:24.145Z,11.88
2022-08-08T23:55:19.379Z,11.86
2022-08-08T23:58:08.087Z,11.78
